sensor_id;sensor_type;location;lat;lon;timestamp;pressure;altitude;pressure_sealevel;temperature
13219;BMP180;6674;49.152;11.918;2023-08-17T00:00:23;96180.19;;;22.82
13219;BMP180;6674;49.152;11.918;2023-08-17T00:02:49;96177.06;;;22.80
13219;BMP180;6674;49.152;11.918;2023-08-17T00:05:16;96190.06;;;22.71
13219;BMP180;6674;49.152;11.918;2023-08-17T00:07:43;96190.34;;;22.70
13219;BMP180;6674;49.152;11.918;2023-08-17T00:10:09;96196.75;;;22.64
13219;BMP180;6674;49.152;11.918;2023-08-17T00:12:36;96193.91;;;22.60
13219;BMP180;6674;49.152;11.918;2023-08-17T00:15:03;96174.00;;;22.54
13219;BMP180;6674;49.152;11.918;2023-08-17T00:17:32;96186.88;;;22.56
13219;BMP180;6674;49.152;11.918;2023-08-17T00:19:58;96186.88;;;22.56
13219;BMP180;6674;49.152;11.918;2023-08-17T00:22:25;96176.13;;;22.52
13219;BMP180;6674;49.152;11.918;2023-08-17T00:24:52;96177.91;;;22.57
13219;BMP180;6674;49.152;11.918;2023-08-17T00:27:19;96189.22;;;22.57
13219;BMP180;6674;49.152;11.918;2023-08-17T00:29:45;96181.31;;;22.57
13219;BMP180;6674;49.152;11.918;2023-08-17T00:32:13;96181.59;;;22.56
13219;BMP180;6674;49.152;11.918;2023-08-17T00:34:41;96184.03;;;22.52
13219;BMP180;6674;49.152;11.918;2023-08-17T00:37:08;96182.72;;;22.50
13219;BMP180;6674;49.152;11.918;2023-08-17T00:39:34;96178.47;;;22.54
13219;BMP180;6674;49.152;11.918;2023-08-17T00:42:03;96182.38;;;22.56
13219;BMP180;6674;49.152;11.918;2023-08-17T00:44:29;96187.06;;;22.59
13219;BMP180;6674;49.152;11.918;2023-08-17T00:46:56;96184.16;;;22.61
13219;BMP180;6674;49.152;11.918;2023-08-17T00:49:23;96179.09;;;22.64
13219;BMP180;6674;49.152;11.918;2023-08-17T00:51:51;96181.47;;;22.66
13219;BMP180;6674;49.152;11.918;2023-08-17T00:54:24;96177.78;;;22.67
13219;BMP180;6674;49.152;11.918;2023-08-17T00:56:51;96181.81;;;22.59
13219;BMP180;6674;49.152;11.918;2023-08-17T00:59:19;96174.78;;;22.55
13219;BMP180;6674;49.152;11.918;2023-08-17T01:01:46;96172.81;;;22.47
13219;BMP180;6674;49.152;11.918;2023-08-17T01:04:13;96172.81;;;22.47
13219;BMP180;6674;49.152;11.918;2023-08-17T01:06:39;96167.91;;;22.41
13219;BMP180;6674;49.152;11.918;2023-08-17T01:09:08;96161.84;;;22.40
13219;BMP180;6674;49.152;11.918;2023-08-17T01:11:38;96159.13;;;22.45
13219;BMP180;6674;49.152;11.918;2023-08-17T01:14:12;96166.53;;;22.43
13219;BMP180;6674;49.152;11.918;2023-08-17T01:16:48;96170.53;;;22.41
13219;BMP180;6674;49.152;11.918;2023-08-17T01:19:23;96176.56;;;22.41
13219;BMP180;6674;49.152;11.918;2023-08-17T01:21:54;96173.94;;;22.41
13219;BMP180;6674;49.152;11.918;2023-08-17T01:24:24;96177.81;;;22.44
13219;BMP180;6674;49.152;11.918;2023-08-17T01:26:52;96166.03;;;22.41
13219;BMP180;6674;49.152;11.918;2023-08-17T01:29:18;96168.03;;;22.31
13219;BMP180;6674;49.152;11.918;2023-08-17T01:31:52;96171.50;;;22.26
13219;BMP180;6674;49.152;11.918;2023-08-17T01:34:22;96174.69;;;22.23
13219;BMP180;6674;49.152;11.918;2023-08-17T01:36:52;96169.66;;;22.27
13219;BMP180;6674;49.152;11.918;2023-08-17T01:39:21;96160.81;;;22.18
13219;BMP180;6674;49.152;11.918;2023-08-17T01:41:52;96167.09;;;22.22
13219;BMP180;6674;49.152;11.918;2023-08-17T01:44:23;96160.00;;;22.17
13219;BMP180;6674;49.152;11.918;2023-08-17T01:46:50;96164.78;;;22.15
13219;BMP180;6674;49.152;11.918;2023-08-17T01:49:17;96165.84;;;22.14
13219;BMP180;6674;49.152;11.918;2023-08-17T01:51:43;96155.38;;;22.09
13219;BMP180;6674;49.152;11.918;2023-08-17T01:54:10;96153.63;;;22.05
13219;BMP180;6674;49.152;11.918;2023-08-17T01:56:37;96155.38;;;22.09
13219;BMP180;6674;49.152;11.918;2023-08-17T01:59:05;96156.75;;;22.07
13219;BMP180;6674;49.152;11.918;2023-08-17T02:01:33;96157.78;;;22.06
13219;BMP180;6674;49.152;11.918;2023-08-17T02:03:59;96158.31;;;22.08
13219;BMP180;6674;49.152;11.918;2023-08-17T02:06:27;96164.13;;;22.05
13219;BMP180;6674;49.152;11.918;2023-08-17T02:08:54;96154.94;;;22.03
13219;BMP180;6674;49.152;11.918;2023-08-17T02:11:21;96158.94;;;22.00
13219;BMP180;6674;49.152;11.918;2023-08-17T02:13:48;96166.34;;;21.93
13219;BMP180;6674;49.152;11.918;2023-08-17T02:16:16;96161.44;;;21.87
13219;BMP180;6674;49.152;11.918;2023-08-17T02:18:43;96166.19;;;21.85
13219;BMP180;6674;49.152;11.918;2023-08-17T02:21:10;96163.78;;;21.88
13219;BMP180;6674;49.152;11.918;2023-08-17T02:23:37;96154.63;;;21.86
13219;BMP180;6674;49.152;11.918;2023-08-17T02:26:03;96144.91;;;21.86
13219;BMP180;6674;49.152;11.918;2023-08-17T02:28:30;96153.06;;;21.85
13219;BMP180;6674;49.152;11.918;2023-08-17T02:30:57;96145.75;;;21.82
13219;BMP180;6674;49.152;11.918;2023-08-17T02:33:27;96151.53;;;21.84
13219;BMP180;6674;49.152;11.918;2023-08-17T02:35:53;96141.00;;;21.84
13219;BMP180;6674;49.152;11.918;2023-08-17T02:38:20;96144.19;;;21.81
13219;BMP180;6674;49.152;11.918;2023-08-17T02:40:48;96143.69;;;21.79
13219;BMP180;6674;49.152;11.918;2023-08-17T02:43:15;96144.97;;;21.81
13219;BMP180;6674;49.152;11.918;2023-08-17T02:45:42;96132.41;;;21.78
13219;BMP180;6674;49.152;11.918;2023-08-17T02:48:09;96148.69;;;21.75
13219;BMP180;6674;49.152;11.918;2023-08-17T02:50:37;96143.00;;;21.68
13219;BMP180;6674;49.152;11.918;2023-08-17T02:53:04;96156.41;;;21.67
13219;BMP180;6674;49.152;11.918;2023-08-17T02:55:31;96144.16;;;21.58
13219;BMP180;6674;49.152;11.918;2023-08-17T02:57:59;96148.53;;;21.44
13219;BMP180;6674;49.152;11.918;2023-08-17T03:00:25;96151.88;;;21.49
13219;BMP180;6674;49.152;11.918;2023-08-17T03:02:52;96147.78;;;21.38
13219;BMP180;6674;49.152;11.918;2023-08-17T03:05:19;96145.16;;;21.38
13219;BMP180;6674;49.152;11.918;2023-08-17T03:07:47;96155.06;;;21.46
13219;BMP180;6674;49.152;11.918;2023-08-17T03:10:14;96145.22;;;21.33
13219;BMP180;6674;49.152;11.918;2023-08-17T03:12:40;96146.81;;;21.29
13219;BMP180;6674;49.152;11.918;2023-08-17T03:15:08;96150.25;;;21.25
13219;BMP180;6674;49.152;11.918;2023-08-17T03:17:35;96158.16;;;21.20
13219;BMP180;6674;49.152;11.918;2023-08-17T03:20:03;96162.16;;;21.18
13219;BMP180;6674;49.152;11.918;2023-08-17T03:22:31;96165.53;;;21.18
13219;BMP180;6674;49.152;11.918;2023-08-17T03:25:00;96164.78;;;21.18
13219;BMP180;6674;49.152;11.918;2023-08-17T03:27:28;96174.81;;;21.11
13219;BMP180;6674;49.152;11.918;2023-08-17T03:29:56;96176.72;;;21.00
13219;BMP180;6674;49.152;11.918;2023-08-17T03:32:22;96169.66;;;20.96
13219;BMP180;6674;49.152;11.918;2023-08-17T03:34:50;96171.28;;;20.92
13219;BMP180;6674;49.152;11.918;2023-08-17T03:37:17;96166.63;;;20.84
13219;BMP180;6674;49.152;11.918;2023-08-17T03:39:43;96166.63;;;20.84
13219;BMP180;6674;49.152;11.918;2023-08-17T03:42:11;96171.84;;;20.84
13219;BMP180;6674;49.152;11.918;2023-08-17T03:44:38;96159.75;;;20.93
13219;BMP180;6674;49.152;11.918;2023-08-17T03:47:05;96163.31;;;21.02
13219;BMP180;6674;49.152;11.918;2023-08-17T03:49:33;96163.81;;;21.04
13219;BMP180;6674;49.152;11.918;2023-08-17T03:51:59;96167.47;;;21.08
13219;BMP180;6674;49.152;11.918;2023-08-17T03:54:26;96154.41;;;21.03
13219;BMP180;6674;49.152;11.918;2023-08-17T03:56:52;96150.22;;;21.02
13219;BMP180;6674;49.152;11.918;2023-08-17T03:59:20;96148.63;;;21.01
13219;BMP180;6674;49.152;11.918;2023-08-17T04:01:47;96154.94;;;21.00
13219;BMP180;6674;49.152;11.918;2023-08-17T04:04:14;96149.22;;;20.98
13219;BMP180;6674;49.152;11.918;2023-08-17T04:06:40;96150.25;;;20.97
13219;BMP180;6674;49.152;11.918;2023-08-17T04:09:07;96143.44;;;20.96
13219;BMP180;6674;49.152;11.918;2023-08-17T04:11:34;96144.00;;;20.93
13219;BMP180;6674;49.152;11.918;2023-08-17T04:14:03;96144.03;;;20.88
13219;BMP180;6674;49.152;11.918;2023-08-17T04:16:31;96150.34;;;20.87
13219;BMP180;6674;49.152;11.918;2023-08-17T04:18:58;96146.13;;;20.86
13219;BMP180;6674;49.152;11.918;2023-08-17T04:21:25;96143.78;;;20.84
13219;BMP180;6674;49.152;11.918;2023-08-17T04:23:51;96149.28;;;20.88
13219;BMP180;6674;49.152;11.918;2023-08-17T04:26:18;96146.66;;;20.88
13219;BMP180;6674;49.152;11.918;2023-08-17T04:28:46;96150.88;;;20.84
13219;BMP180;6674;49.152;11.918;2023-08-17T04:31:18;96163.50;;;20.82
13219;BMP180;6674;49.152;11.918;2023-08-17T04:33:46;96162.72;;;20.77
13219;BMP180;6674;49.152;11.918;2023-08-17T04:36:21;96162.22;;;20.75
13219;BMP180;6674;49.152;11.918;2023-08-17T04:38:48;96160.63;;;20.78
13219;BMP180;6674;49.152;11.918;2023-08-17T04:41:14;96171.84;;;20.84
13219;BMP180;6674;49.152;11.918;2023-08-17T04:43:43;96173.16;;;20.86
13219;BMP180;6674;49.152;11.918;2023-08-17T04:46:12;96176.78;;;20.90
13219;BMP180;6674;49.152;11.918;2023-08-17T04:48:38;96175.47;;;20.93
13219;BMP180;6674;49.152;11.918;2023-08-17T04:51:06;96172.56;;;20.94
13219;BMP180;6674;49.152;11.918;2023-08-17T04:53:33;96164.41;;;20.96
13219;BMP180;6674;49.152;11.918;2023-08-17T04:56:02;96170.97;;;20.98
13219;BMP180;6674;49.152;11.918;2023-08-17T04:58:29;96173.53;;;21.03
13219;BMP180;6674;49.152;11.918;2023-08-17T05:00:55;96174.53;;;21.07
13219;BMP180;6674;49.152;11.918;2023-08-17T05:03:22;96178.44;;;21.15
13219;BMP180;6674;49.152;11.918;2023-08-17T05:05:49;96183.13;;;21.18
13219;BMP180;6674;49.152;11.918;2023-08-17T05:08:17;96184.13;;;21.21
13219;BMP180;6674;49.152;11.918;2023-08-17T05:10:43;96181.75;;;21.25
13219;BMP180;6674;49.152;11.918;2023-08-17T05:13:10;96184.59;;;21.28
13219;BMP180;6674;49.152;11.918;2023-08-17T05:15:37;96180.66;;;21.31
13219;BMP180;6674;49.152;11.918;2023-08-17T05:18:04;96189.78;;;21.38
13219;BMP180;6674;49.152;11.918;2023-08-17T05:20:31;96183.44;;;21.44
13219;BMP180;6674;49.152;11.918;2023-08-17T05:22:58;96182.88;;;21.47
13219;BMP180;6674;49.152;11.918;2023-08-17T05:25:25;96180.75;;;21.49
13219;BMP180;6674;49.152;11.918;2023-08-17T05:27:53;96197.53;;;21.53
13219;BMP180;6674;49.152;11.918;2023-08-17T05:30:19;96191.44;;;21.58
13219;BMP180;6674;49.152;11.918;2023-08-17T05:32:46;96193.50;;;21.61
13219;BMP180;6674;49.152;11.918;2023-08-17T05:35:13;96177.19;;;21.64
13219;BMP180;6674;49.152;11.918;2023-08-17T05:37:39;96183.97;;;21.69
13219;BMP180;6674;49.152;11.918;2023-08-17T05:40:07;96183.16;;;21.74
13219;BMP180;6674;49.152;11.918;2023-08-17T05:42:37;96179.38;;;21.80
13219;BMP180;6674;49.152;11.918;2023-08-17T05:45:06;96185.13;;;21.82
13219;BMP180;6674;49.152;11.918;2023-08-17T05:47:33;96182.22;;;21.83
13219;BMP180;6674;49.152;11.918;2023-08-17T05:49:59;96178.28;;;21.86
13219;BMP180;6674;49.152;11.918;2023-08-17T05:52:26;96186.66;;;21.88
13219;BMP180;6674;49.152;11.918;2023-08-17T05:54:53;96194.31;;;21.84
13219;BMP180;6674;49.152;11.918;2023-08-17T05:57:19;96189.06;;;21.84
13219;BMP180;6674;49.152;11.918;2023-08-17T05:59:47;96193.53;;;21.84
13219;BMP180;6674;49.152;11.918;2023-08-17T06:02:15;96201.22;;;21.75
13219;BMP180;6674;49.152;11.918;2023-08-17T06:04:43;96202.91;;;21.66
13219;BMP180;6674;49.152;11.918;2023-08-17T06:07:09;96206.31;;;21.67
13219;BMP180;6674;49.152;11.918;2023-08-17T06:09:36;96201.84;;;21.67
13219;BMP180;6674;49.152;11.918;2023-08-17T06:12:06;96193.66;;;21.74
13219;BMP180;6674;49.152;11.918;2023-08-17T06:14:32;96197.75;;;21.80
13219;BMP180;6674;49.152;11.918;2023-08-17T06:17:01;96205.09;;;21.83
13219;BMP180;6674;49.152;11.918;2023-08-17T06:19:28;96208.50;;;21.83
13219;BMP180;6674;49.152;11.918;2023-08-17T06:21:55;96207.53;;;21.74
13219;BMP180;6674;49.152;11.918;2023-08-17T06:24:22;96207.78;;;21.78
13219;BMP180;6674;49.152;11.918;2023-08-17T06:26:49;96208.53;;;21.78
13219;BMP180;6674;49.152;11.918;2023-08-17T06:29:16;96206.78;;;21.74
13219;BMP180;6674;49.152;11.918;2023-08-17T06:31:43;96200.94;;;21.77
13219;BMP180;6674;49.152;11.918;2023-08-17T06:34:11;96208.50;;;21.83
13219;BMP180;6674;49.152;11.918;2023-08-17T06:36:38;96205.53;;;21.66
13219;BMP180;6674;49.152;11.918;2023-08-17T06:39:05;96201.75;;;21.49
13219;BMP180;6674;49.152;11.918;2023-08-17T06:41:34;96210.94;;;21.52
13219;BMP180;6674;49.152;11.918;2023-08-17T06:44:00;96206.53;;;21.70
13219;BMP180;6674;49.152;11.918;2023-08-17T06:46:27;96203.56;;;21.77
13219;BMP180;6674;49.152;11.918;2023-08-17T06:48:54;96207.38;;;21.89
13219;BMP180;6674;49.152;11.918;2023-08-17T06:51:22;96214.59;;;22.02
13219;BMP180;6674;49.152;11.918;2023-08-17T06:53:49;96218.69;;;22.13
13219;BMP180;6674;49.152;11.918;2023-08-17T06:56:15;96220.94;;;22.24
13219;BMP180;6674;49.152;11.918;2023-08-17T06:58:42;96212.06;;;22.39
13219;BMP180;6674;49.152;11.918;2023-08-17T07:01:09;96212.66;;;22.54
13219;BMP180;6674;49.152;11.918;2023-08-17T07:03:36;96221.69;;;22.66
13219;BMP180;6674;49.152;11.918;2023-08-17T07:06:03;96219.91;;;22.80
13219;BMP180;6674;49.152;11.918;2023-08-17T07:08:32;96217.66;;;22.92
13219;BMP180;6674;49.152;11.918;2023-08-17T07:10:59;96205.22;;;22.98
13219;BMP180;6674;49.152;11.918;2023-08-17T07:13:26;96213.44;;;23.09
13219;BMP180;6674;49.152;11.918;2023-08-17T07:15:53;96214.66;;;23.17
13219;BMP180;6674;49.152;11.918;2023-08-17T07:18:20;96215.03;;;23.10
13219;BMP180;6674;49.152;11.918;2023-08-17T07:20:46;96216.22;;;23.18
13219;BMP180;6674;49.152;11.918;2023-08-17T07:23:15;96215.69;;;23.34
13219;BMP180;6674;49.152;11.918;2023-08-17T07:25:43;96220.09;;;23.39
13219;BMP180;6674;49.152;11.918;2023-08-17T07:28:10;96214.28;;;23.55
13219;BMP180;6674;49.152;11.918;2023-08-17T07:30:38;96219.09;;;23.66
13219;BMP180;6674;49.152;11.918;2023-08-17T07:33:05;96226.25;;;23.79
13219;BMP180;6674;49.152;11.918;2023-08-17T07:35:31;96231.81;;;23.91
13219;BMP180;6674;49.152;11.918;2023-08-17T07:37:59;96232.44;;;24.01
13219;BMP180;6674;49.152;11.918;2023-08-17T07:40:26;96227.63;;;24.03
13219;BMP180;6674;49.152;11.918;2023-08-17T07:42:54;96227.91;;;24.15
13219;BMP180;6674;49.152;11.918;2023-08-17T07:45:21;96232.63;;;24.18
13219;BMP180;6674;49.152;11.918;2023-08-17T07:47:48;96233.78;;;24.26
13219;BMP180;6674;49.152;11.918;2023-08-17T07:50:14;96228.22;;;24.27
13219;BMP180;6674;49.152;11.918;2023-08-17T07:52:41;96231.06;;;24.44
13219;BMP180;6674;49.152;11.918;2023-08-17T07:55:08;96225.19;;;24.60
13219;BMP180;6674;49.152;11.918;2023-08-17T07:57:34;96232.59;;;24.72
13219;BMP180;6674;49.152;11.918;2023-08-17T08:00:04;96223.38;;;24.82
13219;BMP180;6674;49.152;11.918;2023-08-17T08:02:31;96223.06;;;24.97
13219;BMP180;6674;49.152;11.918;2023-08-17T08:04:59;96221.13;;;25.11
13219;BMP180;6674;49.152;11.918;2023-08-17T08:07:26;96211.03;;;24.91
13219;BMP180;6674;49.152;11.918;2023-08-17T08:09:53;96218.06;;;24.96
13219;BMP180;6674;49.152;11.918;2023-08-17T08:12:19;96213.00;;;24.99
13219;BMP180;6674;49.152;11.918;2023-08-17T08:14:46;96216.28;;;25.05
13219;BMP180;6674;49.152;11.918;2023-08-17T08:17:15;96219.59;;;25.10
13219;BMP180;6674;49.152;11.918;2023-08-17T08:19:41;96199.97;;;25.24
13219;BMP180;6674;49.152;11.918;2023-08-17T08:22:10;96212.28;;;25.07
13219;BMP180;6674;49.152;11.918;2023-08-17T08:24:37;96202.31;;;25.26
13219;BMP180;6674;49.152;11.918;2023-08-17T08:27:06;96203.53;;;25.50
13219;BMP180;6674;49.152;11.918;2023-08-17T08:29:34;96209.56;;;25.64
13219;BMP180;6674;49.152;11.918;2023-08-17T08:32:00;96214.41;;;25.70
13219;BMP180;6674;49.152;11.918;2023-08-17T08:34:29;96217.44;;;25.86
13219;BMP180;6674;49.152;11.918;2023-08-17T08:36:57;96205.34;;;25.93
13219;BMP180;6674;49.152;11.918;2023-08-17T08:39:26;96201.06;;;26.05
13219;BMP180;6674;49.152;11.918;2023-08-17T08:41:54;96205.63;;;26.22
13219;BMP180;6674;49.152;11.918;2023-08-17T08:44:21;96200.41;;;26.39
13219;BMP180;6674;49.152;11.918;2023-08-17T08:46:48;96205.06;;;26.42
13219;BMP180;6674;49.152;11.918;2023-08-17T08:49:19;96192.31;;;26.52
13219;BMP180;6674;49.152;11.918;2023-08-17T08:51:50;96201.22;;;26.73
13219;BMP180;6674;49.152;11.918;2023-08-17T08:54:20;96195.13;;;26.64
13219;BMP180;6674;49.152;11.918;2023-08-17T08:56:51;96200.31;;;26.69
13219;BMP180;6674;49.152;11.918;2023-08-17T08:59:19;96201.41;;;26.93
13219;BMP180;6674;49.152;11.918;2023-08-17T09:01:47;96194.88;;;26.99
13219;BMP180;6674;49.152;11.918;2023-08-17T09:04:14;96204.69;;;27.15
13219;BMP180;6674;49.152;11.918;2023-08-17T09:06:42;96190.81;;;27.27
13219;BMP180;6674;49.152;11.918;2023-08-17T09:09:11;96195.59;;;27.50
13219;BMP180;6674;49.152;11.918;2023-08-17T09:11:40;96198.59;;;27.32
13219;BMP180;6674;49.152;11.918;2023-08-17T09:14:07;96189.38;;;27.46
13219;BMP180;6674;49.152;11.918;2023-08-17T09:16:36;96192.97;;;27.58
13219;BMP180;6674;49.152;11.918;2023-08-17T09:19:04;96195.72;;;27.70
13219;BMP180;6674;49.152;11.918;2023-08-17T09:21:32;96190.41;;;27.79
13219;BMP180;6674;49.152;11.918;2023-08-17T09:23:59;96180.50;;;27.96
13219;BMP180;6674;49.152;11.918;2023-08-17T09:26:30;96179.22;;;28.02
13219;BMP180;6674;49.152;11.918;2023-08-17T09:28:57;96178.00;;;27.99
13219;BMP180;6674;49.152;11.918;2023-08-17T09:31:24;96181.88;;;28.02
13219;BMP180;6674;49.152;11.918;2023-08-17T09:33:51;96184.56;;;28.30
13219;BMP180;6674;49.152;11.918;2023-08-17T09:36:20;96177.28;;;27.82
13219;BMP180;6674;49.152;11.918;2023-08-17T09:38:49;96180.34;;;28.01
13219;BMP180;6674;49.152;11.918;2023-08-17T09:41:17;96180.38;;;28.29
13219;BMP180;6674;49.152;11.918;2023-08-17T09:43:47;96178.25;;;28.43
13219;BMP180;6674;49.152;11.918;2023-08-17T09:46:14;96184.25;;;28.61
13219;BMP180;6674;49.152;11.918;2023-08-17T09:48:43;96172.03;;;28.68
13219;BMP180;6674;49.152;11.918;2023-08-17T09:51:10;96166.13;;;28.83
13219;BMP180;6674;49.152;11.918;2023-08-17T09:53:37;96172.47;;;28.90
13219;BMP180;6674;49.152;11.918;2023-08-17T09:56:05;96176.75;;;29.03
13219;BMP180;6674;49.152;11.918;2023-08-17T09:58:36;96174.78;;;29.12
13219;BMP180;6674;49.152;11.918;2023-08-17T10:01:04;96167.06;;;29.19
13219;BMP180;6674;49.152;11.918;2023-08-17T10:03:33;96173.25;;;29.11
13219;BMP180;6674;49.152;11.918;2023-08-17T10:06:04;96162.09;;;29.17
13219;BMP180;6674;49.152;11.918;2023-08-17T10:08:33;96161.94;;;29.34
13219;BMP180;6674;49.152;11.918;2023-08-17T10:11:04;96171.50;;;29.47
13219;BMP180;6674;49.152;11.918;2023-08-17T10:13:35;96160.22;;;29.50
13219;BMP180;6674;49.152;11.918;2023-08-17T10:16:09;96171.56;;;29.71
13219;BMP180;6674;49.152;11.918;2023-08-17T10:18:41;96168.84;;;29.79
13219;BMP180;6674;49.152;11.918;2023-08-17T10:21:14;96166.50;;;29.78
13219;BMP180;6674;49.152;11.918;2023-08-17T10:23:44;96168.06;;;30.02
13219;BMP180;6674;49.152;11.918;2023-08-17T10:26:12;96162.53;;;30.19
13219;BMP180;6674;49.152;11.918;2023-08-17T10:28:39;96164.06;;;30.20
13219;BMP180;6674;49.152;11.918;2023-08-17T10:31:09;96162.75;;;30.38
13219;BMP180;6674;49.152;11.918;2023-08-17T10:33:35;96166.09;;;30.47
13219;BMP180;6674;49.152;11.918;2023-08-17T10:36:04;96158.72;;;30.68
13219;BMP180;6674;49.152;11.918;2023-08-17T10:38:33;96156.50;;;30.70
13219;BMP180;6674;49.152;11.918;2023-08-17T10:41:09;96166.69;;;30.68
13219;BMP180;6674;49.152;11.918;2023-08-17T10:43:54;96161.13;;;30.73
13219;BMP180;6674;49.152;11.918;2023-08-17T10:46:31;96150.38;;;30.69
13219;BMP180;6674;49.152;11.918;2023-08-17T10:49:02;96158.47;;;30.73
13219;BMP180;6674;49.152;11.918;2023-08-17T10:51:29;96152.44;;;30.25
13219;BMP180;6674;49.152;11.918;2023-08-17T10:53:58;96146.53;;;30.67
13219;BMP180;6674;49.152;11.918;2023-08-17T10:56:29;96153.03;;;30.93
13219;BMP180;6674;49.152;11.918;2023-08-17T10:58:59;96152.28;;;31.08
13219;BMP180;6674;49.152;11.918;2023-08-17T11:01:33;96156.38;;;31.17
13219;BMP180;6674;49.152;11.918;2023-08-17T11:04:12;96141.56;;;31.20
13219;BMP180;6674;49.152;11.918;2023-08-17T11:06:42;96141.81;;;31.42
13219;BMP180;6674;49.152;11.918;2023-08-17T11:09:10;96135.56;;;31.50
13219;BMP180;6674;49.152;11.918;2023-08-17T11:11:37;96138.66;;;31.52
13219;BMP180;6674;49.152;11.918;2023-08-17T11:14:04;96136.25;;;31.47
13219;BMP180;6674;49.152;11.918;2023-08-17T11:16:33;96153.47;;;31.65
13219;BMP180;6674;49.152;11.918;2023-08-17T11:19:00;96145.53;;;31.53
13219;BMP180;6674;49.152;11.918;2023-08-17T11:21:27;96133.16;;;31.45
13219;BMP180;6674;49.152;11.918;2023-08-17T11:23:56;96140.13;;;31.65
13219;BMP180;6674;49.152;11.918;2023-08-17T11:26:23;96135.25;;;31.82
13219;BMP180;6674;49.152;11.918;2023-08-17T11:28:56;96142.28;;;31.75
13219;BMP180;6674;49.152;11.918;2023-08-17T11:31:23;96123.72;;;31.93
13219;BMP180;6674;49.152;11.918;2023-08-17T11:33:51;96133.63;;;32.08
13219;BMP180;6674;49.152;11.918;2023-08-17T11:36:18;96131.03;;;32.12
13219;BMP180;6674;49.152;11.918;2023-08-17T11:38:46;96132.41;;;32.21
13219;BMP180;6674;49.152;11.918;2023-08-17T11:41:13;96126.75;;;32.41
13219;BMP180;6674;49.152;11.918;2023-08-17T11:43:42;96130.38;;;32.33
13219;BMP180;6674;49.152;11.918;2023-08-17T11:46:09;96116.41;;;32.55
13219;BMP180;6674;49.152;11.918;2023-08-17T11:48:36;96123.72;;;32.77
13219;BMP180;6674;49.152;11.918;2023-08-17T11:51:04;96122.38;;;32.86
13219;BMP180;6674;49.152;11.918;2023-08-17T11:53:34;96134.28;;;33.08
13219;BMP180;6674;49.152;11.918;2023-08-17T11:56:01;96129.31;;;33.06
13219;BMP180;6674;49.152;11.918;2023-08-17T11:58:40;96128.88;;;33.04
13219;BMP180;6674;49.152;11.918;2023-08-17T12:01:09;96120.78;;;33.19
13219;BMP180;6674;49.152;11.918;2023-08-17T12:03:36;96121.44;;;32.94
13219;BMP180;6674;49.152;11.918;2023-08-17T12:06:05;96115.09;;;33.02
13219;BMP180;6674;49.152;11.918;2023-08-17T12:08:34;96123.59;;;33.08
13219;BMP180;6674;49.152;11.918;2023-08-17T12:11:02;96109.88;;;33.09
13219;BMP180;6674;49.152;11.918;2023-08-17T12:13:32;96113.59;;;33.23
13219;BMP180;6674;49.152;11.918;2023-08-17T12:16:00;96106.84;;;33.29
13219;BMP180;6674;49.152;11.918;2023-08-17T12:18:26;96104.59;;;33.31
13219;BMP180;6674;49.152;11.918;2023-08-17T12:20:53;96103.56;;;33.17
13219;BMP180;6674;49.152;11.918;2023-08-17T12:23:21;96090.72;;;33.26
13219;BMP180;6674;49.152;11.918;2023-08-17T12:25:52;96087.75;;;33.31
13219;BMP180;6674;49.152;11.918;2023-08-17T12:28:19;96091.63;;;33.52
13219;BMP180;6674;49.152;11.918;2023-08-17T12:30:46;96087.75;;;33.50
13219;BMP180;6674;49.152;11.918;2023-08-17T12:33:13;96084.66;;;33.70
13219;BMP180;6674;49.152;11.918;2023-08-17T12:35:39;96089.72;;;33.34
13219;BMP180;6674;49.152;11.918;2023-08-17T12:38:06;96079.66;;;33.27
13219;BMP180;6674;49.152;11.918;2023-08-17T12:40:35;96079.53;;;33.39
13219;BMP180;6674;49.152;11.918;2023-08-17T12:43:01;96075.63;;;33.56
13219;BMP180;6674;49.152;11.918;2023-08-17T12:45:28;96067.03;;;33.24
13219;BMP180;6674;49.152;11.918;2023-08-17T12:47:55;96057.81;;;33.41
13219;BMP180;6674;49.152;11.918;2023-08-17T12:50:23;96067.19;;;33.54
13219;BMP180;6674;49.152;11.918;2023-08-17T12:52:50;96068.81;;;33.61
13219;BMP180;6674;49.152;11.918;2023-08-17T12:55:17;96049.78;;;33.66
13219;BMP180;6674;49.152;11.918;2023-08-17T12:57:45;96059.22;;;33.83
13219;BMP180;6674;49.152;11.918;2023-08-17T13:00:12;96056.34;;;33.91
13219;BMP180;6674;49.152;11.918;2023-08-17T13:02:39;96057.31;;;34.05
13219;BMP180;6674;49.152;11.918;2023-08-17T13:05:06;96060.19;;;34.19
13219;BMP180;6674;49.152;11.918;2023-08-17T13:07:32;96051.88;;;34.28
13219;BMP180;6674;49.152;11.918;2023-08-17T13:09:59;96060.56;;;34.18
13219;BMP180;6674;49.152;11.918;2023-08-17T13:12:25;96046.63;;;34.35
13219;BMP180;6674;49.152;11.918;2023-08-17T13:14:54;96047.25;;;34.50
13219;BMP180;6674;49.152;11.918;2023-08-17T13:17:22;96042.78;;;34.61
13219;BMP180;6674;49.152;11.918;2023-08-17T13:19:50;96049.81;;;34.73
13219;BMP180;6674;49.152;11.918;2023-08-17T13:22:16;96044.53;;;34.80
13219;BMP180;6674;49.152;11.918;2023-08-17T13:24:43;96036.31;;;34.95
13219;BMP180;6674;49.152;11.918;2023-08-17T13:27:11;96041.09;;;34.79
13219;BMP180;6674;49.152;11.918;2023-08-17T13:29:37;96039.75;;;34.92
13219;BMP180;6674;49.152;11.918;2023-08-17T13:32:07;96040.63;;;35.03
13219;BMP180;6674;49.152;11.918;2023-08-17T13:34:34;96031.00;;;34.98
13219;BMP180;6674;49.152;11.918;2023-08-17T13:37:01;96029.63;;;35.15
13219;BMP180;6674;49.152;11.918;2023-08-17T13:39:29;96019.91;;;35.00
13219;BMP180;6674;49.152;11.918;2023-08-17T13:41:56;96032.63;;;35.06
13219;BMP180;6674;49.152;11.918;2023-08-17T13:44:23;96026.13;;;35.11
13219;BMP180;6674;49.152;11.918;2023-08-17T13:46:49;96019.19;;;35.03
13219;BMP180;6674;49.152;11.918;2023-08-17T13:49:17;96027.78;;;34.86
13219;BMP180;6674;49.152;11.918;2023-08-17T13:51:44;96025.34;;;34.74
13219;BMP180;6674;49.152;11.918;2023-08-17T13:54:11;96031.75;;;34.66
13219;BMP180;6674;49.152;11.918;2023-08-17T13:56:37;96022.97;;;34.69
13219;BMP180;6674;49.152;11.918;2023-08-17T13:59:04;96036.09;;;34.78
13219;BMP180;6674;49.152;11.918;2023-08-17T14:01:31;96018.22;;;34.85
13219;BMP180;6674;49.152;11.918;2023-08-17T14:03:57;96006.97;;;34.76
13219;BMP180;6674;49.152;11.918;2023-08-17T14:06:32;96014.78;;;34.88
13219;BMP180;6674;49.152;11.918;2023-08-17T14:08:58;96018.25;;;34.56
13219;BMP180;6674;49.152;11.918;2023-08-17T14:11:28;96005.03;;;34.41